createdAt,value
2017-07-11T00:00:10.640Z,0
2017-07-11T00:01:12.447Z,0
2017-07-11T00:02:14.317Z,0
2017-07-11T00:03:16.194Z,0
2017-07-11T00:04:18.091Z,0
2017-07-11T00:05:32.282Z,0
2017-07-11T00:06:34.150Z,0
2017-07-11T00:07:36.028Z,0
2017-07-11T00:08:37.901Z,0
2017-07-11T00:09:39.732Z,0
2017-07-11T00:10:41.562Z,0
2017-07-11T00:11:43.437Z,0
2017-07-11T00:12:45.328Z,0
2017-07-11T00:13:47.203Z,0
2017-07-11T00:15:01.367Z,0
2017-07-11T00:16:03.246Z,0
2017-07-11T00:17:05.139Z,0
2017-07-11T00:18:07.029Z,0
2017-07-11T00:19:08.842Z,0
2017-07-11T00:20:10.675Z,0
2017-07-11T00:21:12.553Z,0
2017-07-11T00:22:14.444Z,0
2017-07-11T00:23:16.317Z,0
2017-07-11T00:24:30.484Z,0
2017-07-11T00:25:32.359Z,0
2017-07-11T00:26:34.235Z,0
2017-07-11T00:27:36.134Z,0
2017-07-11T00:28:37.965Z,0
2017-07-11T00:29:39.795Z,0
2017-07-11T00:30:41.668Z,0
2017-07-11T00:31:43.559Z,0
2017-07-11T00:32:45.430Z,0
2017-07-11T00:33:59.574Z,0
2017-07-11T00:35:01.455Z,0
2017-07-11T00:36:03.347Z,0
2017-07-11T00:37:05.221Z,0
2017-07-11T00:38:07.031Z,0
2017-07-11T00:39:08.862Z,0
2017-07-11T00:40:10.750Z,0
2017-07-11T00:41:12.632Z,0
2017-07-11T00:42:14.499Z,0
2017-07-11T00:43:28.647Z,0
2017-07-11T00:44:30.518Z,0
2017-07-11T00:45:32.409Z,0
2017-07-11T00:46:34.280Z,0
2017-07-11T00:47:36.095Z,0
2017-07-11T00:48:37.924Z,0
2017-07-11T00:49:39.800Z,0
2017-07-11T00:50:41.665Z,0
2017-07-11T00:51:43.543Z,0
2017-07-11T00:52:57.714Z,0
2017-07-11T00:53:59.606Z,0
2017-07-11T00:55:01.481Z,0
2017-07-11T00:56:03.355Z,0
2017-07-11T00:57:05.162Z,0
2017-07-11T00:58:06.970Z,0
2017-07-11T00:59:08.842Z,0
2017-07-11T01:00:10.712Z,0
2017-07-11T01:01:12.579Z,0
2017-07-11T01:02:26.726Z,0
2017-07-11T01:03:28.604Z,0
2017-07-11T01:04:30.495Z,0
2017-07-11T01:05:32.385Z,0
2017-07-11T01:06:34.214Z,0
2017-07-11T01:07:36.025Z,0
2017-07-11T01:08:37.919Z,0
2017-07-11T01:09:39.813Z,0
2017-07-11T01:10:41.684Z,0
2017-07-11T01:11:55.832Z,0
2017-07-11T01:12:57.706Z,0
2017-07-11T01:13:59.575Z,0
2017-07-11T01:15:01.469Z,0
2017-07-11T01:16:03.276Z,0
2017-07-11T01:17:05.084Z,0
2017-07-11T01:18:06.953Z,0
2017-07-11T01:19:08.878Z,0
2017-07-11T01:20:10.695Z,0
2017-07-11T01:21:24.864Z,0
2017-07-11T01:22:26.748Z,0
2017-07-11T01:23:28.625Z,0
2017-07-11T01:24:30.518Z,0
2017-07-11T01:25:32.352Z,0
2017-07-11T01:26:34.181Z,0
2017-07-11T01:27:36.075Z,0
2017-07-11T01:28:37.969Z,0
2017-07-11T01:29:39.842Z,0
2017-07-11T01:30:54.009Z,0
2017-07-11T01:31:55.883Z,0
2017-07-11T01:32:57.756Z,0
2017-07-11T01:33:59.652Z,0
2017-07-11T01:35:01.486Z,0
2017-07-11T01:36:03.313Z,0
2017-07-11T01:37:05.187Z,0
2017-07-11T01:38:07.078Z,0
2017-07-11T01:39:08.950Z,0
2017-07-11T01:40:23.120Z,0
2017-07-11T01:41:25.009Z,0
2017-07-11T01:42:26.883Z,0
2017-07-11T01:43:28.755Z,0
2017-07-11T01:44:30.566Z,0
2017-07-11T01:45:32.399Z,0
2017-07-11T01:46:34.287Z,0
2017-07-11T01:47:36.159Z,0
2017-07-11T01:48:38.045Z,0
2017-07-11T01:49:52.187Z,0
2017-07-11T01:50:54.055Z,0
2017-07-11T01:51:55.944Z,0
2017-07-11T01:52:57.815Z,0
2017-07-11T01:53:59.623Z,0
2017-07-11T01:55:01.430Z,0
2017-07-11T01:56:03.305Z,0
2017-07-11T01:57:05.178Z,0
2017-07-11T01:58:07.067Z,0
2017-07-11T01:59:21.216Z,0
2017-07-11T02:00:23.084Z,0
2017-07-11T02:01:24.976Z,0
2017-07-11T02:02:26.847Z,0
2017-07-11T02:03:28.654Z,0
2017-07-11T02:04:30.462Z,0
2017-07-11T02:05:32.335Z,0
2017-07-11T02:06:34.231Z,0
2017-07-11T02:07:36.122Z,0
2017-07-11T02:08:50.336Z,0
2017-07-11T02:09:52.207Z,0
2017-07-11T02:10:54.101Z,0
2017-07-11T02:11:55.994Z,0
2017-07-11T02:12:57.828Z,0
2017-07-11T02:13:59.632Z,0
2017-07-11T02:15:01.505Z,0
2017-07-11T02:16:03.402Z,0
2017-07-11T02:17:05.294Z,0
2017-07-11T02:18:19.439Z,0
2017-07-11T02:19:21.307Z,0
2017-07-11T02:20:23.182Z,0
2017-07-11T02:21:25.076Z,0
2017-07-11T02:22:26.876Z,0
2017-07-11T02:23:28.687Z,0
2017-07-11T02:24:30.560Z,0
2017-07-11T02:25:32.471Z,0
2017-07-11T02:26:34.345Z,0
2017-07-11T02:27:48.486Z,0
2017-07-11T02:28:50.356Z,0
2017-07-11T02:29:52.222Z,0
2017-07-11T02:30:54.088Z,0
2017-07-11T02:31:55.895Z,0
2017-07-11T02:32:57.700Z,0
2017-07-11T02:33:59.568Z,0
2017-07-11T02:35:01.441Z,0
2017-07-11T02:36:03.314Z,0
2017-07-11T02:37:17.480Z,0
2017-07-11T02:38:19.374Z,0
2017-07-11T02:39:21.249Z,0
2017-07-11T02:40:23.142Z,0
2017-07-11T02:41:24.972Z,0
2017-07-11T02:42:26.802Z,0
2017-07-11T02:43:28.677Z,0
2017-07-11T02:44:30.583Z,0
2017-07-11T02:45:32.474Z,0
2017-07-11T02:46:46.602Z,0
2017-07-11T02:47:48.677Z,0
2017-07-11T02:48:50.512Z,0
2017-07-11T02:49:52.406Z,0
2017-07-11T02:50:54.285Z,0
2017-07-11T02:51:56.138Z,0
2017-07-11T02:52:57.979Z,0
2017-07-11T02:53:59.793Z,0
2017-07-11T02:55:01.666Z,0
2017-07-11T02:56:15.881Z,0
2017-07-11T02:57:17.776Z,5
2017-07-11T02:58:19.675Z,5
2017-07-11T02:59:21.546Z,5
2017-07-11T03:00:23.356Z,5
2017-07-11T03:01:25.160Z,5
2017-07-11T03:02:27.043Z,5
2017-07-11T03:03:28.940Z,5
2017-07-11T03:04:30.810Z,5
2017-07-11T03:05:44.956Z,5
2017-07-11T03:06:46.828Z,5
2017-07-11T03:07:48.699Z,5
2017-07-11T03:08:50.576Z,10
2017-07-11T03:09:52.410Z,10
2017-07-11T03:10:54.222Z,10
2017-07-11T03:11:56.097Z,10
2017-07-11T03:12:57.931Z,15
2017-07-11T03:13:59.773Z,15
2017-07-11T03:15:13.945Z,20
2017-07-11T03:16:15.843Z,20
2017-07-11T03:17:17.741Z,20
2017-07-11T03:18:19.640Z,20
2017-07-11T03:19:21.468Z,20
2017-07-11T03:20:23.282Z,20
2017-07-11T03:21:25.156Z,20
2017-07-11T03:22:27.030Z,20
2017-07-11T03:23:28.910Z,20
2017-07-11T03:24:43.079Z,20
2017-07-11T03:25:44.981Z,20
2017-07-11T03:26:46.882Z,20
2017-07-11T03:27:48.781Z,20
2017-07-11T03:28:50.611Z,25
2017-07-11T03:29:52.425Z,25
2017-07-11T03:30:54.327Z,25
2017-07-11T03:31:56.230Z,30
2017-07-11T03:32:58.099Z,30
2017-07-11T03:34:12.247Z,35
2017-07-11T03:35:14.124Z,40
2017-07-11T03:36:16.021Z,40
2017-07-11T03:37:17.897Z,45
2017-07-11T03:38:19.706Z,50
2017-07-11T03:39:21.559Z,50
2017-07-11T03:40:23.401Z,55
2017-07-11T03:41:25.209Z,55
2017-07-11T03:42:27.022Z,55
2017-07-11T03:43:41.170Z,55
2017-07-11T03:44:43.046Z,55
2017-07-11T03:45:44.946Z,55
2017-07-11T03:46:46.841Z,55
2017-07-11T03:47:48.658Z,60
2017-07-11T03:48:50.490Z,60
2017-07-11T03:49:52.372Z,60
2017-07-11T03:50:54.272Z,60
2017-07-11T03:51:56.151Z,60
2017-07-11T03:53:10.301Z,60
2017-07-11T03:54:12.177Z,60
2017-07-11T03:55:14.055Z,60
2017-07-11T03:56:15.957Z,65
2017-07-11T03:57:17.787Z,65
2017-07-11T03:58:19.598Z,65
2017-07-11T03:59:21.478Z,65
2017-07-11T04:00:23.379Z,70
2017-07-11T04:01:25.279Z,70
2017-07-11T04:02:39.454Z,70
2017-07-11T04:03:41.333Z,70
2017-07-11T04:04:43.231Z,70
2017-07-11T04:05:45.109Z,70
2017-07-11T04:06:46.916Z,70
2017-07-11T04:07:48.730Z,75
2017-07-11T04:08:50.611Z,75
2017-07-11T04:09:52.508Z,80
2017-07-11T04:10:54.388Z,80
2017-07-11T04:12:08.536Z,85
2017-07-11T04:13:10.432Z,90
2017-07-11T04:14:12.310Z,95
2017-07-11T04:15:14.190Z,100
2017-07-11T04:16:16.026Z,105
2017-07-11T04:17:17.866Z,105
2017-07-11T04:18:19.769Z,105
2017-07-11T04:19:21.669Z,100
2017-07-11T04:20:23.546Z,95
2017-07-11T04:21:37.719Z,95
2017-07-11T04:22:39.593Z,95
2017-07-11T04:23:41.496Z,95
2017-07-11T04:24:43.394Z,95
2017-07-11T04:25:45.228Z,90
2017-07-11T04:26:47.042Z,90
2017-07-11T04:27:48.945Z,90
2017-07-11T04:28:50.843Z,85
2017-07-11T04:29:52.722Z,85
2017-07-11T04:31:06.890Z,85
2017-07-11T04:32:08.770Z,85
2017-07-11T04:33:10.674Z,85
2017-07-11T04:34:12.572Z,85
2017-07-11T04:35:14.405Z,85
2017-07-11T04:36:16.217Z,85
2017-07-11T04:37:18.099Z,85
2017-07-11T04:38:19.974Z,80
2017-07-11T04:39:21.871Z,80
2017-07-11T04:40:36.020Z,75
2017-07-11T04:41:37.918Z,75
2017-07-11T04:42:39.793Z,80
2017-07-11T04:43:41.665Z,85
2017-07-11T04:44:43.479Z,90
2017-07-11T04:45:45.315Z,95
2017-07-11T04:46:47.193Z,95
2017-07-11T04:47:49.096Z,100
2017-07-11T04:48:50.977Z,100
2017-07-11T04:50:05.143Z,100
2017-07-11T04:51:07.041Z,95
2017-07-11T04:52:08.936Z,90
2017-07-11T04:53:10.811Z,90
2017-07-11T04:54:12.627Z,85
2017-07-11T04:55:14.439Z,85
2017-07-11T04:56:16.317Z,85
2017-07-11T04:57:18.220Z,80
2017-07-11T04:58:20.112Z,80
2017-07-11T04:59:34.261Z,75
2017-07-11T05:00:36.138Z,70
2017-07-11T05:01:38.042Z,70
2017-07-11T05:02:39.936Z,65
2017-07-11T05:03:41.757Z,70
2017-07-11T05:04:43.591Z,70
2017-07-11T05:05:45.491Z,70
2017-07-11T05:06:47.393Z,75
2017-07-11T05:07:49.294Z,80
2017-07-11T05:09:03.462Z,85
2017-07-11T05:10:05.361Z,85
2017-07-11T05:11:07.243Z,90
2017-07-11T05:12:09.140Z,95
2017-07-11T05:13:10.952Z,95
2017-07-11T05:14:12.770Z,100
2017-07-11T05:15:14.605Z,105
2017-07-11T05:16:16.418Z,115
2017-07-11T05:17:18.296Z,115
2017-07-11T05:18:32.442Z,115
2017-07-11T05:19:34.319Z,115
2017-07-11T05:20:36.215Z,110
2017-07-11T05:21:38.094Z,110
2017-07-11T05:22:39.905Z,105
2017-07-11T05:23:41.724Z,105
2017-07-11T05:24:43.623Z,105
2017-07-11T05:25:45.522Z,100
2017-07-11T05:26:47.400Z,100
2017-07-11T05:28:01.549Z,100
2017-07-11T05:29:03.450Z,95
2017-07-11T05:30:05.328Z,95
2017-07-11T05:31:07.221Z,90
2017-07-11T05:32:09.037Z,90
2017-07-11T05:33:10.852Z,90
2017-07-11T05:34:12.751Z,90
2017-07-11T05:35:14.624Z,95
2017-07-11T05:36:16.495Z,100
2017-07-11T05:37:30.646Z,95
2017-07-11T05:38:32.540Z,90
2017-07-11T05:39:34.413Z,85
2017-07-11T05:40:36.286Z,90
2017-07-11T05:41:38.102Z,95
2017-07-11T05:42:39.941Z,95
2017-07-11T05:43:41.839Z,90
2017-07-11T05:44:43.717Z,80
2017-07-11T05:45:45.632Z,70
2017-07-11T05:46:59.738Z,70
2017-07-11T05:48:01.609Z,70
2017-07-11T05:49:03.504Z,70
2017-07-11T05:50:05.402Z,65
2017-07-11T05:51:07.246Z,55
2017-07-11T05:52:09.081Z,50
2017-07-11T05:53:10.948Z,45
2017-07-11T05:54:12.817Z,40
2017-07-11T05:55:14.693Z,35
2017-07-11T05:56:28.860Z,35
2017-07-11T05:57:30.737Z,35
2017-07-11T05:58:32.610Z,35
2017-07-11T05:59:34.479Z,40
2017-07-11T06:00:36.286Z,45
2017-07-11T06:01:38.102Z,50
2017-07-11T06:02:39.943Z,55
2017-07-11T06:03:41.819Z,55
2017-07-11T06:04:43.712Z,60
2017-07-11T06:05:57.866Z,70
2017-07-11T06:06:59.757Z,80
2017-07-11T06:08:01.633Z,85
2017-07-11T06:09:03.511Z,95
2017-07-11T06:10:05.348Z,110
2017-07-11T06:11:07.160Z,135
2017-07-11T06:12:09.039Z,160
2017-07-11T06:13:10.915Z,170
2017-07-11T06:14:12.844Z,175
2017-07-11T06:15:26.958Z,180
2017-07-11T06:16:28.836Z,180
2017-07-11T06:17:30.741Z,180
2017-07-11T06:18:32.636Z,180
2017-07-11T06:19:34.452Z,175
2017-07-11T06:20:36.291Z,170
2017-07-11T06:21:38.190Z,165
2017-07-11T06:22:40.059Z,150
2017-07-11T06:23:41.941Z,140
2017-07-11T06:24:56.119Z,130
2017-07-11T06:25:58.014Z,120
2017-07-11T06:26:59.893Z,110
2017-07-11T06:28:01.765Z,105
2017-07-11T06:29:03.603Z,100
2017-07-11T06:30:05.445Z,100
2017-07-11T06:31:07.344Z,95
2017-07-11T06:32:09.241Z,100
2017-07-11T06:33:11.117Z,105
2017-07-11T06:34:25.272Z,115
2017-07-11T06:35:27.176Z,120
2017-07-11T06:36:29.076Z,125
2017-07-11T06:37:30.977Z,125
2017-07-11T06:38:32.788Z,115
2017-07-11T06:39:34.608Z,110
2017-07-11T06:40:36.484Z,120
2017-07-11T06:41:38.386Z,140
2017-07-11T06:42:40.261Z,145
2017-07-11T06:43:54.403Z,135
2017-07-11T06:44:56.280Z,125
2017-07-11T06:45:58.179Z,115
2017-07-11T06:47:00.053Z,100
2017-07-11T06:48:01.892Z,90
2017-07-11T06:49:03.731Z,80
2017-07-11T06:50:05.626Z,80
2017-07-11T06:51:07.500Z,95
2017-07-11T06:52:09.383Z,100
2017-07-11T06:53:23.552Z,100
2017-07-11T06:54:25.492Z,90
2017-07-11T06:55:27.324Z,75
2017-07-11T06:56:29.225Z,70
2017-07-11T06:57:31.035Z,85
2017-07-11T06:58:32.882Z,100
2017-07-11T06:59:34.774Z,120
2017-07-11T07:00:36.651Z,125
2017-07-11T07:01:38.547Z,120
2017-07-11T07:02:52.720Z,120
2017-07-11T07:03:54.615Z,115
2017-07-11T07:04:56.497Z,105
2017-07-11T07:05:58.371Z,95
2017-07-11T07:07:00.208Z,90
2017-07-11T07:08:02.043Z,80
2017-07-11T07:09:03.928Z,70
2017-07-11T07:10:05.824Z,60
2017-07-11T07:11:07.702Z,55
2017-07-11T07:12:21.875Z,55
2017-07-11T07:13:23.778Z,65
2017-07-11T07:14:25.679Z,75
2017-07-11T07:15:27.559Z,90
2017-07-11T07:16:29.401Z,100
2017-07-11T07:17:31.235Z,110
2017-07-11T07:18:33.139Z,115
2017-07-11T07:19:35.038Z,120
2017-07-11T07:20:36.921Z,120
2017-07-11T07:21:51.089Z,120
2017-07-11T07:22:53.118Z,120
2017-07-11T07:23:54.998Z,125
2017-07-11T07:24:56.873Z,125
2017-07-11T07:25:58.687Z,125
2017-07-11T07:27:00.500Z,125
2017-07-11T07:28:02.401Z,125
2017-07-11T07:29:04.302Z,125
2017-07-11T07:30:06.179Z,125
2017-07-11T07:31:20.401Z,125
2017-07-11T07:32:22.302Z,125
2017-07-11T07:33:24.179Z,120
2017-07-11T07:34:26.082Z,120
2017-07-11T07:35:27.917Z,120
2017-07-11T07:36:29.728Z,130
2017-07-11T07:37:31.615Z,135
2017-07-11T07:38:33.505Z,135
2017-07-11T07:39:35.388Z,140
2017-07-11T07:40:49.562Z,145
2017-07-11T07:41:51.461Z,140
2017-07-11T07:42:53.364Z,140
2017-07-11T07:43:55.291Z,140
2017-07-11T07:44:57.072Z,130
2017-07-11T07:45:58.910Z,120
2017-07-11T07:47:00.811Z,115
2017-07-11T07:48:02.686Z,120
2017-07-11T07:49:04.567Z,130
2017-07-11T07:50:18.720Z,140
2017-07-11T07:51:20.623Z,150
2017-07-11T07:52:22.502Z,160
2017-07-11T07:53:24.404Z,170
2017-07-11T07:54:26.211Z,170
2017-07-11T07:55:28.043Z,165
2017-07-11T07:56:29.911Z,165
2017-07-11T07:57:31.814Z,165
2017-07-11T07:58:33.713Z,175
2017-07-11T07:59:47.862Z,180
2017-07-11T08:00:49.757Z,170
2017-07-11T08:01:51.643Z,160
2017-07-11T08:02:53.517Z,155
2017-07-11T08:03:55.357Z,155
2017-07-11T08:04:57.191Z,165
2017-07-11T08:05:59.071Z,175
2017-07-11T08:07:00.952Z,185
2017-07-11T08:08:02.831Z,185
2017-07-11T08:09:17.005Z,175
2017-07-11T08:10:18.905Z,170
2017-07-11T08:11:20.786Z,170
2017-07-11T08:12:22.659Z,170
2017-07-11T08:13:24.474Z,170
2017-07-11T08:14:26.313Z,165
2017-07-11T08:15:28.217Z,160
2017-07-11T08:16:30.118Z,160
2017-07-11T08:17:31.994Z,160
2017-07-11T08:18:46.145Z,155
2017-07-11T08:19:48.025Z,150
2017-07-11T08:20:49.924Z,135
2017-07-11T08:21:51.797Z,120
2017-07-11T08:22:53.607Z,110
2017-07-11T08:23:55.426Z,110
2017-07-11T08:24:57.312Z,115
2017-07-11T08:25:59.210Z,120
2017-07-11T08:27:01.092Z,125
2017-07-11T08:28:15.239Z,140
2017-07-11T08:29:17.114Z,150
2017-07-11T08:30:18.995Z,155
2017-07-11T08:31:20.898Z,165
2017-07-11T08:32:22.732Z,175
2017-07-11T08:33:24.573Z,180
2017-07-11T08:34:26.477Z,180
2017-07-11T08:35:28.449Z,175
2017-07-11T08:36:30.443Z,180
2017-07-11T08:37:44.621Z,170
2017-07-11T08:38:46.506Z,165
2017-07-11T08:39:48.388Z,165
2017-07-11T08:40:50.290Z,165
2017-07-11T08:41:52.126Z,170
2017-07-11T08:42:53.966Z,165
2017-07-11T08:43:55.870Z,130
2017-07-11T08:44:57.776Z,125
2017-07-11T08:45:59.693Z,135
2017-07-11T08:47:13.866Z,115
2017-07-11T08:48:15.745Z,90
2017-07-11T08:49:17.645Z,75
2017-07-11T08:50:19.519Z,70
2017-07-11T08:51:21.333Z,65
2017-07-11T08:52:23.143Z,70
2017-07-11T08:53:25.025Z,65
2017-07-11T08:54:26.931Z,110
2017-07-11T08:55:28.809Z,130
2017-07-11T08:56:42.983Z,145
2017-07-11T08:57:44.891Z,150
2017-07-11T08:58:46.788Z,185
2017-07-11T08:59:48.679Z,185
2017-07-11T09:00:50.480Z,195
2017-07-11T09:01:52.319Z,210
2017-07-11T09:02:54.196Z,190
2017-07-11T09:03:56.075Z,180
2017-07-11T09:04:57.956Z,210
2017-07-11T09:06:12.107Z,220
2017-07-11T09:07:14.001Z,225
2017-07-11T09:08:15.884Z,230
2017-07-11T09:09:17.785Z,245
2017-07-11T09:10:19.624Z,265
2017-07-11T09:11:21.471Z,260
2017-07-11T09:12:23.353Z,250
2017-07-11T09:13:25.255Z,235
2017-07-11T09:14:27.143Z,220
2017-07-11T09:15:41.294Z,200
2017-07-11T09:16:43.195Z,195
2017-07-11T09:17:45.077Z,195
2017-07-11T09:18:46.979Z,195
2017-07-11T09:19:48.787Z,195
2017-07-11T09:20:50.604Z,195
2017-07-11T09:21:52.506Z,200
2017-07-11T09:22:54.409Z,205
2017-07-11T09:23:56.288Z,210
2017-07-11T09:25:10.459Z,200
2017-07-11T09:26:12.362Z,200
2017-07-11T09:27:14.264Z,200
2017-07-11T09:28:16.147Z,195
2017-07-11T09:29:17.981Z,195
2017-07-11T09:30:19.794Z,195
2017-07-11T09:31:21.681Z,200
2017-07-11T09:32:23.619Z,205
2017-07-11T09:33:25.491Z,210
2017-07-11T09:34:39.642Z,225
2017-07-11T09:35:41.459Z,230
2017-07-11T09:36:43.321Z,235
2017-07-11T09:37:45.192Z,230
2017-07-11T09:38:47.233Z,230
2017-07-11T09:39:49.181Z,225
2017-07-11T09:40:50.990Z,220
2017-07-11T09:41:52.806Z,220
2017-07-11T09:42:54.679Z,225
2017-07-11T09:44:08.895Z,230
2017-07-11T09:45:10.773Z,235
2017-07-11T09:46:12.676Z,235
2017-07-11T09:47:14.579Z,235
2017-07-11T09:48:16.411Z,230
2017-07-11T09:49:18.233Z,225
2017-07-11T09:50:20.105Z,225
2017-07-11T09:51:21.982Z,220
2017-07-11T09:52:23.861Z,220
2017-07-11T09:53:38.066Z,220
2017-07-11T09:54:39.881Z,220
2017-07-11T09:55:41.761Z,225
2017-07-11T09:56:43.633Z,230
2017-07-11T09:57:45.453Z,230
2017-07-11T09:58:47.264Z,240
2017-07-11T09:59:49.147Z,250
2017-07-11T10:00:51.050Z,260
2017-07-11T10:01:52.921Z,265
2017-07-11T10:03:07.080Z,270
2017-07-11T10:04:08.976Z,270
2017-07-11T10:05:10.854Z,265
2017-07-11T10:06:12.730Z,260
2017-07-11T10:07:14.548Z,255
2017-07-11T10:08:16.365Z,250
2017-07-11T10:09:18.269Z,245
2017-07-11T10:10:20.171Z,245
2017-07-11T10:11:22.032Z,250
2017-07-11T10:12:36.245Z,260
2017-07-11T10:13:38.149Z,255
2017-07-11T10:14:40.052Z,260
2017-07-11T10:15:41.952Z,250
2017-07-11T10:16:43.788Z,220
2017-07-11T10:17:45.608Z,200
2017-07-11T10:18:47.505Z,195
2017-07-11T10:19:49.387Z,210
2017-07-11T10:20:51.270Z,205
2017-07-11T10:22:05.437Z,185
2017-07-11T10:23:07.315Z,175
2017-07-11T10:24:09.221Z,185
2017-07-11T10:25:11.125Z,200
2017-07-11T10:26:12.973Z,210
2017-07-11T10:27:14.830Z,220
2017-07-11T10:28:16.711Z,225
2017-07-11T10:29:18.592Z,215
2017-07-11T10:30:20.644Z,200
2017-07-11T10:31:34.878Z,200
2017-07-11T10:32:36.777Z,210
2017-07-11T10:33:38.654Z,205
2017-07-11T10:34:40.537Z,185
2017-07-11T10:35:42.352Z,145
2017-07-11T10:36:44.169Z,130
2017-07-11T10:37:46.046Z,130
2017-07-11T10:38:47.924Z,135
2017-07-11T10:39:49.805Z,160
2017-07-11T10:41:03.980Z,195
2017-07-11T10:42:05.885Z,180
2017-07-11T10:43:07.784Z,170
2017-07-11T10:44:09.662Z,170
2017-07-11T10:45:11.497Z,175
2017-07-11T10:46:13.314Z,170
2017-07-11T10:47:15.216Z,155
2017-07-11T10:48:17.098Z,100
2017-07-11T10:49:18.999Z,75
2017-07-11T10:50:33.172Z,105
2017-07-11T10:51:35.070Z,115
2017-07-11T10:52:36.957Z,115
2017-07-11T10:53:38.851Z,110
2017-07-11T10:54:40.662Z,110
2017-07-11T10:55:42.479Z,105
2017-07-11T10:56:44.382Z,105
2017-07-11T10:57:46.254Z,105
2017-07-11T10:58:48.136Z,110
2017-07-11T11:00:02.287Z,120
2017-07-11T11:01:04.188Z,130
2017-07-11T11:02:06.093Z,140
2017-07-11T11:03:07.990Z,160
2017-07-11T11:04:09.813Z,170
2017-07-11T11:05:11.641Z,180
2017-07-11T11:06:13.523Z,185
2017-07-11T11:07:15.427Z,195
2017-07-11T11:08:17.329Z,205
2017-07-11T11:09:31.505Z,220
2017-07-11T11:10:33.436Z,225
2017-07-11T11:11:35.331Z,235
2017-07-11T11:12:37.212Z,255
2017-07-11T11:13:39.050Z,265
2017-07-11T11:14:40.884Z,280
2017-07-11T11:15:42.788Z,285
2017-07-11T11:16:44.689Z,300
2017-07-11T11:17:46.573Z,320
2017-07-11T11:19:00.749Z,340
2017-07-11T11:20:02.648Z,360
2017-07-11T11:21:04.552Z,380
2017-07-11T11:22:06.454Z,405
2017-07-11T11:23:08.270Z,445
2017-07-11T11:24:10.108Z,475
2017-07-11T11:25:11.992Z,500
2017-07-11T11:26:13.900Z,530
2017-07-11T11:27:15.803Z,565
2017-07-11T11:28:29.980Z,605
2017-07-11T11:29:31.896Z,635
2017-07-11T11:30:33.781Z,660
2017-07-11T11:31:35.685Z,665
2017-07-11T11:32:37.524Z,680
2017-07-11T11:33:39.341Z,700
2017-07-11T11:34:41.229Z,725
2017-07-11T11:35:43.131Z,765
2017-07-11T11:36:45.035Z,795
2017-07-11T11:37:59.187Z,820
2017-07-11T11:39:01.066Z,830
2017-07-11T11:40:02.941Z,835
2017-07-11T11:41:04.824Z,845
2017-07-11T11:42:06.668Z,845
2017-07-11T11:43:08.504Z,845
2017-07-11T11:44:10.404Z,855
2017-07-11T11:45:12.291Z,845
2017-07-11T11:46:14.195Z,845
2017-07-11T11:47:28.368Z,845
2017-07-11T11:48:30.250Z,845
2017-07-11T11:49:32.137Z,840
2017-07-11T11:50:34.017Z,865
2017-07-11T11:51:35.861Z,885
2017-07-11T11:52:37.703Z,880
2017-07-11T11:53:39.581Z,900
2017-07-11T11:54:41.469Z,920
2017-07-11T11:55:43.375Z,935
2017-07-11T11:56:57.554Z,960
2017-07-11T11:57:59.462Z,970
2017-07-11T11:59:01.364Z,955
2017-07-11T12:00:03.253Z,930
2017-07-11T12:01:05.098Z,890
2017-07-11T12:02:06.944Z,870
2017-07-11T12:03:08.851Z,865
2017-07-11T12:04:10.738Z,865
2017-07-11T12:05:12.617Z,870
2017-07-11T12:06:26.775Z,825
2017-07-11T12:07:28.663Z,715
2017-07-11T12:08:30.548Z,680
2017-07-11T12:09:32.451Z,645
2017-07-11T12:10:34.265Z,585
2017-07-11T12:11:36.087Z,545
2017-07-11T12:12:37.967Z,470
2017-07-11T12:13:39.855Z,430
2017-07-11T12:14:41.760Z,385
2017-07-11T12:15:55.907Z,335
2017-07-11T12:16:57.792Z,310
2017-07-11T12:17:59.789Z,305
2017-07-11T12:19:01.692Z,310
2017-07-11T12:20:03.533Z,305
2017-07-11T12:21:05.377Z,295
2017-07-11T12:22:07.283Z,300
2017-07-11T12:23:09.185Z,345
2017-07-11T12:24:11.099Z,410
2017-07-11T12:25:25.273Z,475
2017-07-11T12:26:27.152Z,535
2017-07-11T12:27:29.038Z,560
2017-07-11T12:28:30.920Z,515
2017-07-11T12:29:32.759Z,550
2017-07-11T12:30:34.602Z,600
2017-07-11T12:31:36.489Z,645
2017-07-11T12:32:38.396Z,675
2017-07-11T12:33:40.280Z,665
2017-07-11T12:34:54.430Z,650
2017-07-11T12:35:56.305Z,635
2017-07-11T12:36:58.223Z,630
2017-07-11T12:38:00.221Z,635
2017-07-11T12:39:02.055Z,645
2017-07-11T12:40:03.876Z,660
2017-07-11T12:41:05.786Z,690
2017-07-11T12:42:07.681Z,735
2017-07-11T12:43:09.594Z,765
2017-07-11T12:44:23.776Z,735
2017-07-11T12:45:25.677Z,700
2017-07-11T12:46:27.568Z,700
2017-07-11T12:47:29.472Z,740
2017-07-11T12:48:31.288Z,770
2017-07-11T12:49:33.129Z,800
2017-07-11T12:50:35.033Z,830
2017-07-11T12:51:36.913Z,820
2017-07-11T12:52:38.793Z,805
2017-07-11T12:53:52.971Z,805
2017-07-11T12:54:54.869Z,840
2017-07-11T12:55:56.751Z,805
2017-07-11T12:56:58.633Z,730
2017-07-11T12:58:00.452Z,715
2017-07-11T12:59:02.295Z,700
2017-07-11T13:00:04.202Z,725
2017-07-11T13:01:06.110Z,735
2017-07-11T13:02:07.987Z,735
2017-07-11T13:03:22.145Z,655
2017-07-11T13:04:24.054Z,630
2017-07-11T13:05:25.959Z,660
2017-07-11T13:06:27.846Z,690
2017-07-11T13:07:29.667Z,720
2017-07-11T13:08:31.512Z,730
2017-07-11T13:09:33.413Z,735
2017-07-11T13:10:35.298Z,730
2017-07-11T13:11:37.181Z,735
2017-07-11T13:12:51.363Z,755
2017-07-11T13:13:53.277Z,795
2017-07-11T13:14:55.173Z,810
2017-07-11T13:15:57.064Z,790
2017-07-11T13:16:58.900Z,780
2017-07-11T13:18:00.721Z,805
2017-07-11T13:19:02.609Z,825
2017-07-11T13:20:04.510Z,830
2017-07-11T13:21:06.391Z,815
2017-07-11T13:22:20.567Z,780
2017-07-11T13:23:22.444Z,760
2017-07-11T13:24:24.333Z,735
2017-07-11T13:25:26.218Z,730
2017-07-11T13:26:28.068Z,760
2017-07-11T13:27:29.908Z,800
2017-07-11T13:28:31.790Z,850
2017-07-11T13:29:33.692Z,860
2017-07-11T13:30:35.599Z,865
2017-07-11T13:31:49.775Z,860
2017-07-11T13:32:51.655Z,840
2017-07-11T13:33:53.540Z,820
2017-07-11T13:34:55.441Z,805
2017-07-11T13:35:57.261Z,785
2017-07-11T13:36:59.083Z,765
2017-07-11T13:38:00.989Z,755
2017-07-11T13:39:02.874Z,680
2017-07-11T13:40:04.784Z,585
2017-07-11T13:41:18.957Z,490
2017-07-11T13:42:20.863Z,445
2017-07-11T13:43:22.745Z,410
2017-07-11T13:44:24.670Z,360
2017-07-11T13:45:26.550Z,295
2017-07-11T13:46:28.455Z,250
2017-07-11T13:47:30.358Z,220
2017-07-11T13:48:32.289Z,215
2017-07-11T13:49:34.200Z,225
2017-07-11T13:50:48.420Z,260
2017-07-11T13:51:50.379Z,280
2017-07-11T13:52:52.341Z,300
2017-07-11T13:53:54.261Z,320
2017-07-11T13:54:56.103Z,370
2017-07-11T13:55:57.958Z,365
2017-07-11T13:56:59.904Z,370
2017-07-11T13:58:01.871Z,365
2017-07-11T13:59:03.814Z,360
2017-07-11T14:00:18.034Z,315
2017-07-11T14:01:19.907Z,305
2017-07-11T14:02:21.788Z,320
2017-07-11T14:03:23.689Z,335
2017-07-11T14:04:25.507Z,350
2017-07-11T14:05:27.372Z,370
2017-07-11T14:06:29.284Z,405
2017-07-11T14:07:31.225Z,430
2017-07-11T14:08:33.125Z,435
2017-07-11T14:09:47.324Z,435
2017-07-11T14:10:49.224Z,435
2017-07-11T14:11:51.105Z,430
2017-07-11T14:12:52.987Z,395
2017-07-11T14:13:54.818Z,365
2017-07-11T14:14:56.641Z,345
2017-07-11T14:15:58.540Z,330
2017-07-11T14:17:00.418Z,310
2017-07-11T14:18:02.325Z,305
2017-07-11T14:19:16.499Z,295
2017-07-11T14:20:18.375Z,295
2017-07-11T14:21:20.253Z,295
2017-07-11T14:22:22.171Z,300
2017-07-11T14:23:23.987Z,310
2017-07-11T14:24:25.803Z,335
2017-07-11T14:25:27.647Z,365
2017-07-11T14:26:29.502Z,405
2017-07-11T14:27:31.316Z,435
2017-07-11T14:28:45.527Z,475
2017-07-11T14:29:47.360Z,505
2017-07-11T14:30:49.244Z,530
2017-07-11T14:31:51.119Z,530
2017-07-11T14:32:52.990Z,520
2017-07-11T14:33:54.755Z,485
2017-07-11T14:34:56.661Z,465
2017-07-11T14:35:58.563Z,465
2017-07-11T14:37:00.444Z,470
2017-07-11T14:38:14.616Z,455
2017-07-11T14:39:16.495Z,450
2017-07-11T14:40:18.387Z,450
2017-07-11T14:41:20.259Z,445
2017-07-11T14:42:22.095Z,450
2017-07-11T14:43:23.917Z,455
2017-07-11T14:44:25.820Z,440
2017-07-11T14:45:27.710Z,435
2017-07-11T14:46:29.611Z,425
2017-07-11T14:47:43.763Z,435
2017-07-11T14:48:45.650Z,440
2017-07-11T14:49:47.577Z,440